Jale Nailatikau

Olheiro-Chefe - Rewa
3 Fev 2028
Quinta-feira
Processo

Personalidade

Adaptabilidade (10) Ambição (4) Controvérsia (7) Lealdade (11) Pressão (1) Profissionalismo (9) Espírito Esportivo (15) Temperamento (7)

Perfil

Estilo de Treinamento Democrático
Licença Continental B
Determinação 7
Gestão de Pessoas 2
Motivação 7
Disciplina 6
Satisfação no Trabalho
100%
Fadiga
0%
Função Olheiro-Chefe
Salário 19.9K p/s
Contrato 14.03.2029

Desempenho

Comportamento Bom
Eficácia do Treinamento
15%
Desenvolvimento do Jogador
35%
Prevenção de Lesões
5%
Implementação Tática
25%

Eventos Recentes

Avaliou um jogador agora
Participou de uma reunião de recrutamento agora
Avaliou um jogador 7d atrás
Avaliou um jogador 7d atrás
Avaliou um jogador 7d atrás
Avaliou um jogador 7d atrás
Avaliou um jogador 7d atrás
Avaliou um jogador 7d atrás

Monitorando agora

419
Jogador Clube Status Habilidade Confiança Observado Última observação Último voto
Sebastián Píriz Tacuarembo Ativo 90 / 78 40% 2 02.02.2028 -
Franco Tejera Oriental Ativo 77 / 76 40% 5 02.02.2028 -
Milorad Stajić Brisbane Roar Ativo 104 / 114 40% 1 02.02.2028 -
Federico Álvarez Atlanta Ativo 114 / 111 40% 2 01.02.2028 -
Damir Temirov Andijon Ativo 108 / 99 40% 3 01.02.2028 -
Román Gutiérrez River Plate Ativo 96 / 106 40% 1 01.02.2028 -
Nicolás Talpone Colón Ativo 121 / 98 40% 4 31.01.2028 -
Joaquín Ochoa Giménez Arsenal Ativo 111 / 102 40% 4 31.01.2028 -
James Stamatelopoulos Hawke's Bay United Ativo 77 / 88 40% 1 31.01.2028 -
Franco Aguirre San Telmo Ativo 93 / 99 40% 4 30.01.2028 -
Jaiden Kucharski Perth Glory Ativo 94 / 107 40% 2 30.01.2028 -
Gabriel Altamirano Almirante Brown Ativo 116 / 109 40% 7 29.01.2028 -
Armando Oropa Semen Padang Ativo 63 / 66 40% 1 29.01.2028 -
Nazareno Kihm Ferro Carril Oeste Ativo 120 / 119 40% 5 28.01.2028 -
Luca Barreto La Luz Ativo 91 / 97 40% 5 28.01.2028 -
Mateo Natale Defensores Ativo 108 / 95 40% 4 28.01.2028 -
Axel Oyola Racing Ativo 108 / 117 40% 3 26.01.2028 -
Milton Gerez Güemes Ativo 120 / 95 40% 1 26.01.2028 -
Sani Rizki PSBS Biak Ativo 80 / 92 40% 1 26.01.2028 -
Maximo Ingravidi Colón Ativo 115 / 118 40% 6 25.01.2028 -
Marco Miori Alvarado Ativo 107 / 119 40% 4 25.01.2028 -
Oscar Fryer Newcastle Jets Ativo 108 / 102 40% 1 25.01.2028 -
Diego Opazo Santiago Wanderers Ativo 98 / 92 40% 1 25.01.2028 -
Ignacio Sabatini Gimnasia y Esgrima Ativo 99 / 107 40% 1 25.01.2028 -
Mauricio Lacerda Miramar Misiones Ativo 87 / 87 40% 6 23.01.2028 -
Facundo Umpiérrez Artigas Ativo 83 / 77 40% 4 23.01.2028 -
Ignacio Palacio All Boys Ativo 115 / 117 40% 5 23.01.2028 -
Eugenio Olivera Talleres Ativo 100 / 99 40% 1 23.01.2028 -
Gonzalo Flores Almirante Brown Ativo 110 / 103 40% 1 23.01.2028 -
Nicolás Ferreyra Gimnasia y Esgrima Ativo 101 / 99 40% 5 22.01.2028 -
Emiliano Mozzone Deportivo Maldonado Ativo 112 / 89 40% 2 22.01.2028 -
Santiago Corbo Miramar Misiones Ativo 108 / 104 40% 1 22.01.2028 -
Facundo Vigo Atenas Ativo 97 / 83 40% 3 21.01.2028 -
Santiago Briñone San Martín Ativo 115 / 108 40% 3 21.01.2028 -
Milton Cantero Talleres Ativo 105 / 96 40% 3 21.01.2028 -
Ali Mekawir Navua Ativo 72 / 69 40% 7 19.01.2028 -
Nicolás Moreno San Martín Ativo 102 / 93 40% 5 19.01.2028 -
Gonzalo Gutiérrez San Martín Ativo 92 / 94 40% 6 19.01.2028 -
Iván Fernández Colegiales Ativo 91 / 109 40% 7 18.01.2028 -
Devan Tanton Aguilas Doradas Ativo 96 / 104 40% 2 18.01.2028 -
Sairusi Nalaubu Lautoka Ativo 86 / 89 40% 5 17.01.2028 -
Santiago Cartagena Deportivo Maldonado Ativo 113 / 112 40% 1 17.01.2028 -
Caxambu Borneo Ativo 80 / 81 40% 1 17.01.2028 -
Emiliano Zambrano Gimnasia y Esgrima Ativo 96 / 99 40% 1 16.01.2028 -
Leandro Allende Colón Ativo 115 / 113 40% 1 16.01.2028 -
Matías Recalde Gimnasia y Esgrima Ativo 109 / 121 40% 3 14.01.2028 -
Mauro Molina Estudiantes Ativo 101 / 111 40% 2 14.01.2028 -
José Duarte Tacuarembo Ativo 73 / 79 40% 2 12.01.2028 -
Alfie James Ventforet Kofu Ativo 92 / 95 40% 3 12.01.2028 -
Lucas Cardoso Maluku Utara United Ativo 80 / 76 40% 3 12.01.2028 -
Matías Mansilla Alvarado Ativo 97 / 100 40% 4 11.01.2028 -
Ilham Udin Armayn PSBS Biak Ativo 92 / 86 40% 3 11.01.2028 -
Tobías Macies Almagro Ativo 111 / 103 40% 1 10.01.2028 -
Fabián Ocampos 12 de Octubre Ativo 79 / 71 40% 1 10.01.2028 -
Federico Sena Estudiantes Ativo 96 / 99 40% 4 09.01.2028 -
Danilo Ruiz Díaz Agropecuario Argentino Ativo 104 / 104 40% 1 09.01.2028 -
Duván Riascos Deportes Quindio Ativo 100 / 96 40% 2 07.01.2028 -
Jhoao Rodríguez Deportes Quindio Ativo 123 / 111 40% 2 07.01.2028 -
Pieter Jacobsz Perth Glory Ativo 105 / 107 40% 4 06.01.2028 -
Feby Eka Putra Persis Ativo 91 / 87 40% 1 06.01.2028 -
Eduardo Esterilla Deportes Quindio Ativo 89 / 105 40% 4 05.01.2028 -
Lucas Ortíz Uruguay Montevideo Ativo 80 / 93 40% 2 05.01.2028 -
Brayan Castro Bogota Ativo 85 / 97 40% 3 04.01.2028 -
Jerónimo Porto Lapegüe San Telmo Ativo 98 / 119 40% 1 04.01.2028 -
Ramiro Jara Racing Ativo 94 / 98 40% 5 02.01.2028 -
Agustín Zabaleta Chaco For Ever Ativo 92 / 88 40% 2 02.01.2028 -
Axel Pedrozo Almagro Ativo 85 / 81 40% 1 02.01.2028 -
Maximiliano Arias Defensores Ativo 78 / 87 40% 5 01.01.2028 -
Nicolás Iachetti San Martín SJ Ativo 90 / 88 40% 2 01.01.2028 -
Maikah Dau Nasinu Rejeitado 51 / 53 65% 1 01.01.2028 Rejeitar
Ariel Castellano Alvarado Ativo 93 / 93 40% 2 30.12.2027 -
Abel Argañaraz Gimnasia y Esgrima Ativo 111 / 109 40% 4 29.12.2027 -
Ian López Tacuarembo Ativo 101 / 81 40% 2 29.12.2027 -
Agustín Chopitea Colon Ativo 115 / 95 40% 1 29.12.2027 -
Luciano Perdomo Chacarita Juniors Ativo 117 / 119 40% 2 28.12.2027 -
Santiago Otegui Plaza Colonia Ativo 106 / 107 40% 1 28.12.2027 -
Yance Sayuri Maluku Utara United Ativo 83 / 65 40% 1 26.12.2027 -
Federico Amestoy Miramar Misiones Ativo 74 / 86 40% 5 24.12.2027 -
Gabriel Carrasco Los Andes Ativo 117 / 93 40% 4 24.12.2027 -
Joaquín Avilés Cerrito Ativo 86 / 80 40% 2 23.12.2027 -
Ifeagwu Ojukwu Atyrau Ativo 89 / 103 40% 4 23.12.2027 -
Simón Contreras Iquique Ativo 103 / 107 40% 1 23.12.2027 -
Gonzalo Asis Almagro Ativo 117 / 114 40% 6 19.12.2027 -
Gustavo Rodriguez Valledupar Ativo 103 / 110 40% 4 19.12.2027 -
Nahuel Frascone Arsenal Ativo 101 / 92 40% 3 16.12.2027 -
Mauro Valiente Estudiantes Ativo 110 / 115 40% 1 16.12.2027 -
Claudio Campostrini All Boys Rejeitado 108 / 112 40% 1 16.12.2027 Mais informações
Pablo da Silveira Cerro Ativo 95 / 87 40% 3 14.12.2027 -
Matías Salerno San Telmo Ativo 101 / 106 40% 6 13.12.2027 -
Agustín Rodríguez Colon Ativo 82 / 88 40% 1 13.12.2027 -
Amirbek Saidov Bukhara Ativo 98 / 95 40% 1 13.12.2027 -
Matías Canedo Rampla Juniors Ativo 92 / 80 40% 5 11.12.2027 -
Joaquín Mateo Central Norte Ativo 101 / 107 40% 5 10.12.2027 -
Nahuel Marzochi Colon Ativo 103 / 105 40% 8 10.12.2027 -
Pablo Viudez Rentistas Ativo 93 / 107 40% 6 10.12.2027 -
Francisco Borda Central Norte Ativo 98 / 103 40% 3 10.12.2027 -
Thomas Rodríguez Banfield Ativo 107 / 91 40% 4 07.12.2027 -
Armando Preciado Deportes Quindio Ativo 103 / 89 40% 1 06.12.2027 -
Rodrigo Monserrat Colegiales Ativo 94 / 100 40% 1 03.12.2027 -
Rosyad Setiawan Semen Padang Ativo 83 / 83 40% 2 01.12.2027 -
Javier Ortíz Barranquilla Ativo 99 / 97 40% 1 30.11.2027 -
Lautaro Montani Defensores Unidos Ativo 115 / 102 40% 1 28.11.2027 -
Wahyudi Hamisi Persijap Ativo 88 / 87 40% 1 27.11.2027 -
Dylan Cabral Arsenal Ativo 111 / 116 40% 1 27.11.2027 -
Roberto Osorio Atletico Venezuela Ativo 71 / 62 40% 2 26.11.2027 -
Franco Balmaceda Quilmes Ativo 79 / 81 40% 1 26.11.2027 -
Cristian González Cerrito Ativo 88 / 106 40% 3 24.11.2027 -
Federico Acosta Miramar Misiones Ativo 101 / 105 40% 4 24.11.2027 -
Facundo Borges Central Espanol Ativo 83 / 85 40% 1 22.11.2027 -
Matías Samaniego Talleres Ativo 93 / 96 40% 2 17.11.2027 -
Emanuel Iñíguez Morón Ativo 109 / 112 40% 1 16.11.2027 -
Leonardo González Colegiales Ativo 96 / 100 40% 2 13.11.2027 -
Agustín da Rocha Cerrito Ativo 99 / 100 40% 1 13.11.2027 -
Octávio Silva Artigas Ativo 92 / 97 40% 1 12.11.2027 -
Ignacio Giacinti Patronato Ativo 106 / 110 40% 3 07.11.2027 -
Felipe Serrés Wanderers Ativo 95 / 97 40% 2 07.11.2027 -
Samuel Peréa Bogota Ativo 74 / 88 40% 2 03.11.2027 -
Juan Peinipil Madryn Ativo 110 / 105 40% 1 03.11.2027 -
Frets Butuan Maluku Utara United Ativo 65 / 59 40% 1 03.11.2027 -
Mariano Nichele Cerro Ativo 102 / 93 40% 3 01.11.2027 -
Gonzalo Larrazábal Deportivo Maldonado Ativo 104 / 102 40% 2 31.10.2027 -
Wladimir Cid Santiago Wanderers Ativo 88 / 98 40% 3 29.10.2027 -
Jonathan Baeza La Luz Ativo 106 / 88 40% 1 14.10.2027 -
Jeremías Castro San Martín SJ Ativo 102 / 101 40% 1 11.10.2027 -
José Castellano Mineros de Guayana Ativo 96 / 88 40% 1 06.10.2027 -
José Luis García Alianza Petrolera Ativo 99 / 92 40% 3 03.10.2027 -
Braian Rivero Atlanta Ativo 119 / 114 40% 1 30.09.2027 -
Mateo Rodríguez Artigas Ativo 80 / 75 40% 2 29.09.2027 -
Fernando Macedo Zulia Ativo 60 / 70 40% 2 23.09.2027 -
Agustín Díaz Estudiantes de Caracas Ativo 62 / 78 40% 1 23.09.2027 -
Ryan Reid Hawke's Bay United Ativo 70 / 73 40% 1 16.09.2027 -
Tomás Velásquez Deportes Tolima Ativo 93 / 111 40% 2 14.09.2027 -
Diego Magallanes Defensores Ativo 102 / 120 40% 5 06.09.2027 -
Lucas Camejo River Plate Ativo 78 / 80 40% 4 05.09.2027 -
Brian Guerra Chaco For Ever Ativo 111 / 111 40% 1 05.09.2027 -
Samuel Posada Leones Ativo 88 / 86 40% 3 31.08.2027 -
Fernando Rodríguez Venialgo Suva Ativo 77 / 85 40% 1 31.08.2027 -
Joaquín Postigo Quilmes Ativo 99 / 99 40% 1 28.08.2027 -
Zachary De Jesus Sydney FC Ativo 89 / 87 40% 3 24.08.2027 -
Miguel Pernía Estudiantes de Caracas Ativo 97 / 89 40% 2 23.08.2027 -
Angus Kilkolly Auckland City Ativo 80 / 84 40% 1 16.08.2027 -
Aly Ndom Persijap Ativo 108 / 93 40% 1 14.08.2027 -
Felipe Rivarola San Martín Ativo 93 / 110 40% 6 13.08.2027 -
Kou Gotou Irtysh Ativo 88 / 96 40% 2 13.08.2027 -
Máximo Soto Sampaio Correa Ativo 77 / 83 40% 1 12.08.2027 -
Nicolás Baigorria San Telmo Ativo 83 / 93 40% 1 11.08.2027 -
Esteban Rodríguez Uruguay Montevideo Ativo 90 / 98 40% 1 11.08.2027 -
Facundo Infante Talleres Ativo 101 / 107 40% 1 09.08.2027 -
Aydan Hammond Western Sydney Wanderers Ativo 94 / 94 40% 1 08.08.2027 -
Diego Vargas San Marcos de Arica Ativo 90 / 86 40% 1 02.08.2027 -
Jeremías Silveira Fenix Ativo 86 / 110 40% 1 31.07.2027 -
Luis Yanes Real Cartagena Ativo 83 / 111 40% 1 30.07.2027 -
Mauro Schönfeld Morón Rejeitado 110 / 101 40% 1 30.07.2027 Mais informações
Facundo Montiel Colegiales Ativo 111 / 113 40% 1 30.07.2027 -
Carlos Hormazábal San Luis Ativo 95 / 93 40% 1 29.07.2027 -
Steward Toata Nadroga Ativo 51 / 58 40% 1 28.07.2027 -
Ezequiel Ramírez All Boys Ativo 110 / 100 40% 3 27.07.2027 -
Alfonso de Luca Liverpool Montevideo Ativo 95 / 111 40% 1 24.07.2027 -
Bailey O'Neil Adelaide United Ativo 80 / 98 40% 4 22.07.2027 -
Catriel Peña Racing Ativo 74 / 93 40% 1 22.07.2027 -
Älisher Sulei Taraz Ativo 84 / 72 40% 1 21.07.2027 -
Rocky Junior Nadi Ativo 68 / 50 40% 1 20.07.2027 -
Aldo Fuentes Madryn Ativo 73 / 85 40% 1 19.07.2027 -
Agustín Acosta Atenas Ativo 95 / 102 40% 1 19.07.2027 -
Martín Farías Cerro Ativo 78 / 85 40% 1 19.07.2027 -
Nabil Begg Ba Ativo 74 / 73 40% 1 17.07.2027 -
Santiago Amaral Artigas Ativo 93 / 98 40% 1 16.07.2027 -
Yeison Castillo Real Santander Ativo 93 / 76 40% 1 16.07.2027 -
Luquinhas Alianza Petrolera Ativo 69 / 91 40% 2 15.07.2027 -
Dunkan Dorrego Juventud Ativo 95 / 88 40% 1 14.07.2027 -
Wilmer Bustamante Real Santander Ativo 77 / 85 40% 2 08.07.2027 -
Tobías Astorga Banfield Ativo 90 / 102 40% 1 07.07.2027 -
Harold Sandoval Bogota Ativo 76 / 94 40% 1 07.07.2027 -
Bruno Motta Oriental Ativo 82 / 86 40% 1 05.07.2027 -
Ravinesh Reddy Nadroga Ativo 47 / 68 40% 1 04.07.2027 -
Felipe Barrenechea Liverpool Montevideo Ativo 72 / 87 40% 1 04.07.2027 -
Joaquín Livera Morón Ativo 115 / 106 40% 1 02.07.2027 -
Angel Uñates Güemes Ativo 99 / 101 40% 2 01.07.2027 -
Santino Duarte Cortulua Ativo 70 / 96 40% 1 01.07.2027 -
Franco Caro Defensores Ativo 79 / 104 40% 1 30.06.2027 -
Benjamín Rodríguez Rentistas Ativo 76 / 86 40% 3 25.06.2027 -
Juan Pablo Perrotta Santiago Wanderers Ativo 84 / 88 40% 1 25.06.2027 -
Barrie Limoki Nadroga Ativo 64 / 54 40% 1 23.06.2027 -
Leandro Vilte Central Norte Ativo 88 / 72 40% 1 22.06.2027 -
Wonderson Yakubu Hapoel Raanana Ativo 61 / 61 40% 1 21.06.2027 -
Frank Ruiz Once Caldas Ativo 71 / 88 40% 2 18.06.2027 -
Eneriko Matau Nadi Ativo 62 / 65 52% 1 / 1m 16.06.2027 -
Franco Pulian Chacarita Juniors Ativo 92 / 96 40% 1 16.06.2027 -
Matías Jaime Artigas Ativo 67 / 79 40% 1 16.06.2027 -
Mathias MacAllister Sydney FC Ativo 66 / 57 40% 1 15.06.2027 -
Thomas González Cerro Largo Ativo 89 / 89 40% 2 13.06.2027 -
Agustín Tejera Fenix Ativo 99 / 85 40% 1 13.06.2027 -
Ronaldo Royero Depor Ativo 104 / 94 40% 1 12.06.2027 -
Michel Silveira Rentistas Ativo 103 / 100 40% 1 11.06.2027 -
Enzo Abondetto Central Norte Ativo 85 / 102 40% 2 10.06.2027 -
Benjamín Rosales Racing Ativo 73 / 91 40% 1 07.06.2027 -
Enrique Céspedes Aragua Ativo 81 / 74 40% 1 06.06.2027 -
Nahuel González Mitre Ativo 78 / 75 40% 1 02.06.2027 -
Chris Donnell Central Coast Mariners Ativo 89 / 81 40% 2 01.06.2027 -
Joel Erlinch Racing Ativo 81 / 78 40% 1 01.06.2027 -
Martín González San Telmo Ativo 93 / 90 40% 2 28.05.2027 -
Matías Améstica Santiago Wanderers Ativo 97 / 94 40% 2 27.05.2027 -
Óscar Hinojosa Metropolitanos Ativo 94 / 89 40% 1 27.05.2027 -
Christian Bracco Team Wellington Ativo 80 / 92 40% 1 25.05.2027 -
Santiago Martínez Leones Ativo 86 / 74 40% 1 24.05.2027 -
Kristian Popovic Central Coast Mariners Ativo 85 / 89 40% 1 23.05.2027 -
Daniel Zapata Envigado Ativo 90 / 96 40% 1 19.05.2027 -
Azizbek Abdumajidov Nasinu Ativo 61 / 68 40% 1 19.05.2027 -
Federico Bonetto River Plate Ativo 69 / 98 40% 1 18.05.2027 -
Joshua Inserra Melbourne Victory Ativo 85 / 85 40% 2 17.05.2027 -
Felipe Coronel All Boys Ativo 100 / 100 40% 1 14.05.2027 -
Siyabonga Mkhize Lautoka Ativo 71 / 68 40% 1 13.05.2027 -
Riley Dalziell Auckland FC Ativo 80 / 79 40% 1 12.05.2027 -
Ryan Kalms Melbourne City Ativo 80 / 77 40% 2 11.05.2027 -
Solomon Onyedikachi Nasinu Ativo 78 / 67 40% 1 08.05.2027 -
Austin Ludwik Brisbane Roar Ativo 83 / 82 40% 1 03.05.2027 -
Yojhan Neira Real Santander Ativo 85 / 95 40% 1 28.04.2027 -
Leonel Cardozo Morón Ativo 95 / 99 40% 1 27.04.2027 -
Alexander Hernández Racing Ativo 98 / 113 40% 1 25.04.2027 -
Ángel Méndez Alianza Petrolera Ativo 98 / 100 40% 1 25.04.2027 -
Jorge Carrasco Real Santander Ativo 76 / 81 40% 1 23.04.2027 -
Enzo Aguirre Agropecuario Argentino Ativo 103 / 120 40% 1 22.04.2027 -
Gonzalo Quinteros Godoy Cruz Ativo 107 / 112 40% 1 20.04.2027 -
Rodrigo Stocco Temperley Ativo 85 / 108 40% 2 18.04.2027 -
Julián Pou Montevideo City Torque Ativo 101 / 111 40% 1 15.04.2027 -
Tomás Maya Deportes Tolima Ativo 90 / 117 40% 1 15.04.2027 -
Andriano Lebib Perth Glory Ativo 89 / 81 40% 2 13.04.2027 -
Gabriel Risso Patrón Colón Ativo 108 / 103 40% 1 13.04.2027 -
David Ledesma Quilmes Ativo 112 / 117 40% 1 11.04.2027 -
Juan Felipe Holguín Envigado Ativo 94 / 87 40% 1 08.04.2027 -
Lautaro Fernández Alvarado Ativo 87 / 107 40% 2 07.04.2027 -
Michael Pistiner Bnei Yehuda Ativo 77 / 75 40% 3 06.04.2027 -
Germán Triunfo River Plate Ativo 103 / 111 40% 1 03.04.2027 -
Juan Ramírez Estudiantes de Caracas Ativo 95 / 80 40% 1 01.04.2027 -
Elías Calderón Central Norte Ativo 124 / 121 40% 1 31.03.2027 -
Javier Pereyra Nueva Chicago Ativo 107 / 105 40% 1 30.03.2027 -
Julio Patiño Fortaleza CEIF Ativo 77 / 87 40% 1 30.03.2027 -
Fabrizio Almeida San Miguel Ativo 82 / 93 40% 1 28.03.2027 -
Simón Bentancur Rentistas Ativo 84 / 93 40% 1 20.03.2027 -
Mateo Acuña Vélez Ativo 90 / 87 40% 1 18.03.2027 -
Ramiro Soperez Lanús Ativo 91 / 120 40% 2 17.03.2027 -
Fabian Talladira Adelaide United Ativo 82 / 89 40% 3 15.03.2027 -
Zach Lisolajski Jubilo Iwata Ativo 75 / 99 40% 1 14.03.2027 -
Joaquín Soria Talleres Ativo 101 / 103 40% 1 14.03.2027 -
Santiago Ojeda Huachipato Ativo 99 / 82 40% 1 12.03.2027 -
Bautista Herrera Central Espanol Ativo 94 / 87 40% 1 12.03.2027 -
Ignacio Mujica Juventud Ativo 95 / 84 40% 1 09.03.2027 -
Vittorio Magno Atenas Ativo 107 / 112 40% 1 05.03.2027 -
Gonzalo Castilla Central Norte Ativo 105 / 113 40% 1 04.03.2027 -
Elías Machuca Nueva Chicago Ativo 108 / 112 40% 1 04.03.2027 -
Joaquín Pereyra Estudiantes Ativo 105 / 103 40% 1 24.02.2027 -
David Alfaro Racing Ativo 92 / 89 40% 1 22.02.2027 -
Faustino Messina Estudiantes Ativo 88 / 100 40% 1 19.02.2027 -
Tim Tuiloma Canterbury United Ativo 75 / 63 40% 1 19.02.2027 -
Thiago Gómez Argentinos Juniors Ativo 102 / 91 40% 1 17.02.2027 -
Carlos Torres San Martín Ativo 92 / 86 40% 1 16.02.2027 -
Diego Sánchez River Plate Ativo 89 / 92 40% 1 15.02.2027 -
Mauro Matorras Central Norte Ativo 102 / 87 40% 1 14.02.2027 -
Joaquín Moreno Central Córdoba SdE Ativo 88 / 109 40% 2 11.02.2027 -
Lautaro Vargas Maipú Ativo 79 / 78 40% 1 10.02.2027 -
Harrison Shillington Melbourne Victory Ativo 78 / 81 40% 1 09.02.2027 -
Genaro Giordani Gimnasia y Esgrima Ativo 97 / 113 40% 2 08.02.2027 -
Agustín Seyral Sarmiento Ativo 97 / 91 40% 1 08.02.2027 -
Will McKay Macarthur FC Ativo 77 / 87 40% 1 05.02.2027 -
Bautista Agostinelli All Boys Ativo 96 / 81 40% 1 05.02.2027 -
Facundo González San Telmo Ativo 65 / 96 40% 1 29.01.2027 -
Tiago Romero Atlanta Ativo 73 / 81 40% 1 28.01.2027 -
Juan David Ramírez Leones Ativo 79 / 69 40% 1 27.01.2027 -
Máximo Magnoli Ferro Carril Oeste Ativo 84 / 97 40% 1 27.01.2027 -
Camilo Sánchez Miramar Misiones Ativo 93 / 76 40% 1 27.01.2027 -
Juan Pérez Racing Ativo 92 / 83 40% 1 26.01.2027 -
Gonzalo Sosa Defensa y Justicia Ativo 71 / 95 40% 1 25.01.2027 -
Tobías Barrionuevo Gimnasia y Tiro Ativo 77 / 82 40% 1 25.01.2027 -
Tobías Armas Talleres Ativo 78 / 68 40% 1 23.01.2027 -
Francisco Silva Temperley Ativo 92 / 94 40% 2 22.01.2027 -
Mauro Bogado Cerro Porteno Ativo 79 / 82 40% 1 22.01.2027 -
Bruno Medina All Boys Ativo 94 / 102 40% 1 21.01.2027 -
Lucian Carracedo Tigre Ativo 90 / 102 40% 1 21.01.2027 -
Nicolás Valdemarín Estudiantes Ativo 91 / 100 40% 1 14.01.2027 -
G'anisher Qodirov Shortan Ativo 63 / 67 40% 1 14.01.2027 -
Ali Auglah Central Coast Mariners Ativo 82 / 99 40% 1 13.01.2027 -
Wilmer Guerrero Universidad de Concepcion Ativo 64 / 70 40% 1 12.01.2027 -
Lautaro Gandulfo Central Espanol Ativo 99 / 101 40% 1 10.01.2027 -
Santiago Cáceres All Boys Ativo 90 / 102 40% 1 10.01.2027 -
Leandro Aldeco Vélez Ativo 98 / 112 40% 1 09.01.2027 -
Jhoan Merino Racing Club Ativo 99 / 106 40% 1 06.01.2027 -
Facundo Morales Cerro Ativo 70 / 100 40% 1 06.01.2027 -
Álvaro Navoni Tigre Ativo 78 / 93 40% 1 04.01.2027 -
Agustín Maglione Platense Ativo 93 / 118 40% 1 03.01.2027 -
José Movillo O'Higgins Ativo 68 / 75 40% 1 03.01.2027 -
Tobías Ganduglia Independiente Rivadavia Ativo 88 / 107 40% 2 31.12.2026 -
Ariel Castro Wanderers Ativo 87 / 96 40% 1 31.12.2026 -
Juan Briceño Aragua Ativo 64 / 91 40% 1 31.12.2026 -
Lorenzo Orzán Colón Ativo 79 / 106 40% 2 29.12.2026 -
Santiago Ranalli Racing Club Ativo 70 / 95 40% 1 29.12.2026 -
Rodrigo Sosa Mitre Ativo 71 / 71 40% 1 28.12.2026 -
Enzo Reynoso Defensa y Justicia Ativo 89 / 101 40% 1 27.12.2026 -
César Galíndez Belgrano Ativo 106 / 83 40% 1 26.12.2026 -
Andry Sena River Plate Ativo 76 / 90 40% 1 23.12.2026 -
Gabriel Compañ Barracas Central Ativo 70 / 89 40% 1 21.12.2026 -
Tadeo Aguiar La Luz Ativo 99 / 101 40% 1 20.12.2026 -
Alan Ortiz Maipú Ativo 93 / 87 40% 1 19.12.2026 -
Benjamín Garay Los Andes Ativo 85 / 104 40% 1 18.12.2026 -
Zane Helweh Macarthur FC Ativo 76 / 76 40% 2 17.12.2026 -
Lorenzo Ivancic Defensa y Justicia Ativo 79 / 80 40% 1 14.12.2026 -
Aaron Vera Maipú Ativo 83 / 102 40% 2 13.12.2026 -
Ezequiel Medina Alvarado Ativo 73 / 95 40% 1 12.12.2026 -
Agustín Nieto Gimnasia y Esgrima Ativo 92 / 96 40% 1 11.12.2026 -
Federico Palmieri All Boys Ativo 69 / 86 40% 1 11.12.2026 -
Ivo Molinari San Telmo Ativo 80 / 76 40% 1 10.12.2026 -
Ramiro González Atlético Tucumán Ativo 88 / 86 40% 1 09.12.2026 -
Franco Chacarelli Belgrano Ativo 77 / 101 40% 1 07.12.2026 -
Walter Mendaro Danubio Ativo 65 / 69 40% 1 06.12.2026 -
David Ojeda Barracas Central Ativo 89 / 81 40% 1 06.12.2026 -
Azael D'Alessandro San Lorenzo Ativo 61 / 100 40% 2 05.12.2026 -
Víctor Machado Independiente Rivadavia Ativo 98 / 101 40% 1 03.12.2026 -
Gonzalo Vallejos Temperley Ativo 77 / 93 40% 1 30.11.2026 -
Jean Lucas Severo Defensor Sporting Ativo 95 / 83 40% 2 29.11.2026 -
Lorenzo Corral Deportivo Riestra Ativo 92 / 90 40% 1 29.11.2026 -
Renzo Barbieri Bogota Ativo 83 / 59 40% 1 28.11.2026 -
Thiago Perugini San Lorenzo Ativo 90 / 87 40% 4 27.11.2026 -
James Waine Hawke's Bay United Ativo 74 / 67 40% 4 27.11.2026 -
Leonardo Díaz Palestino Ativo 77 / 82 40% 1 27.11.2026 -
Franco Cabral Jubilo Iwata Ativo 92 / 103 40% 1 27.11.2026 -
Martín Astudillo Racing Ativo 97 / 85 40% 2 26.11.2026 -
Jordan Quispe Cienciano Ativo 57 / 70 40% 1 24.11.2026 -
José Pérez Portuguesa Ativo 87 / 82 40% 1 23.11.2026 -
Mateo Rivas Independiente Medellin Ativo 93 / 73 40% 1 23.11.2026 -
Jerónimo Buosi Colón Ativo 97 / 110 40% 1 21.11.2026 -
Thiago Yfran Temperley Ativo 88 / 101 40% 2 20.11.2026 -
Luca Cura Sarmiento Ativo 77 / 82 40% 1 20.11.2026 -
Santino Gallardo Platense Ativo 66 / 83 40% 1 19.11.2026 -
Gerónimo Montivero Godoy Cruz Ativo 75 / 85 40% 1 19.11.2026 -
Francisco Arias Gimnasia y Esgrima Ativo 83 / 87 40% 1 18.11.2026 -
Bruno Trey Talleres Ativo 75 / 105 40% 1 18.11.2026 -
Juan Cekalovich Gimnasia y Esgrima Ativo 94 / 90 40% 1 14.11.2026 -
Luca Sapiente Mitre Ativo 83 / 96 40% 1 13.11.2026 -
Agustín Arambillete Defensor Sporting Ativo 61 / 91 40% 1 12.11.2026 -
Bruno Di Gennaro Tigre Ativo 79 / 83 40% 1 10.11.2026 -
Nicolás Laporte Artigas Ativo 78 / 70 40% 1 08.11.2026 -
Joan Sosa Defensa y Justicia Ativo 100 / 104 40% 1 08.11.2026 -
Tiago Marghetich Quilmes Ativo 82 / 87 40% 1 08.11.2026 -
Juan Felipe Morales Deportivo Cali Ativo 94 / 96 40% 1 06.11.2026 -
Lautaro Paz Central Córdoba SdE Ativo 73 / 98 40% 1 03.11.2026 -
Mateo Benítez Deportivo Cali Ativo 95 / 95 40% 1 02.11.2026 -
Bruno Hernández Cerro Largo Ativo 90 / 95 40% 2 01.11.2026 -
Lautaro Díaz San Martín Ativo 94 / 88 40% 1 01.11.2026 -
Laureano Paez Colón Ativo 84 / 98 40% 1 31.10.2026 -
Vicente Ramírez Universidad de Chile Ativo 83 / 97 40% 1 26.10.2026 -
Ignacio Copetti Central Córdoba SdE Ativo 75 / 79 40% 2 25.10.2026 -
Rodrigo Fernández Alvarado Ativo 92 / 103 40% 1 22.10.2026 -
Diego Méndez Tacuarembo Ativo 83 / 99 40% 1 22.10.2026 -
Yoimer Pacheco Union Magdalena Ativo 65 / 96 40% 2 20.10.2026 -
Lautaro Gaitán Colón Ativo 96 / 119 40% 1 20.10.2026 -
Bautista Mamousse Chacarita Juniors Ativo 72 / 78 40% 1 18.10.2026 -
Luis Landázuri Atletico Nacional Ativo 88 / 110 40% 1 18.10.2026 -
Julián Silva Colón Ativo 79 / 72 40% 1 17.10.2026 -
Joaquín Medina Racing Ativo 69 / 106 40% 1 15.10.2026 -
Ernesto Pontoriero San Telmo Ativo 70 / 82 40% 1 15.10.2026 -
Francisco Cuzzani Ferro Carril Oeste Ativo 93 / 110 40% 1 14.10.2026 -
Mateo Muñoz Talleres Ativo 103 / 82 40% 1 13.10.2026 -
Cristhofer Mesías Universidad de Concepcion Ativo 89 / 107 40% 2 12.10.2026 -
Matías Salgado Central Norte Ativo 84 / 103 40% 1 12.10.2026 -
Richard Nkomo Newcastle Jets Ativo 77 / 78 40% 1 11.10.2026 -
Jesús Martínez Valledupar Ativo 94 / 97 40% 1 10.10.2026 -
Juan Pablo Moreno Defensa y Justicia Ativo 90 / 108 40% 1 10.10.2026 -
Lucas Scicluna Perth Glory Ativo 62 / 81 40% 1 09.10.2026 -
Santiago Luna Quilmes Ativo 75 / 101 40% 1 08.10.2026 -
Román Quiroga Temperley Ativo 82 / 71 40% 1 07.10.2026 -
Tahiel González Defensa y Justicia Ativo 89 / 96 40% 1 05.10.2026 -
Antonio Roble San Telmo Ativo 83 / 96 40% 1 05.10.2026 -
Gonzalo Tapia Palestino Ativo 96 / 102 40% 2 02.10.2026 -
Germán Barbas Penarol Ativo 103 / 103 40% 1 02.10.2026 -
Bautista Caviglia Sarmiento Ativo 101 / 102 40% 2 01.10.2026 -
Paulo Bustos Rosario Central Ativo 101 / 102 40% 1 01.10.2026 -
Ezequiel Moya Chacarita Juniors Ativo 106 / 98 40% 1 30.09.2026 -
Martín Rodríguez Mitre Ativo 119 / 109 40% 1 30.09.2026 -
Francisco Ginella Albion Ativo 115 / 100 40% 3 29.09.2026 -
Gonzalo Peruzzi San Martín SJ Ativo 95 / 77 40% 1 29.09.2026 -
Gonzalo Corro Banfield Ativo 74 / 99 40% 1 27.09.2026 -
Deyvis Jallaza Estudiantes Ativo 67 / 79 40% 1 26.09.2026 -
Juan Camacaro Aragua Ativo 81 / 83 40% 3 24.09.2026 -
Alexis Dulón Huracán Ativo 85 / 99 40% 1 24.09.2026 -
Jonathan Ledesma Platense Ativo 81 / 81 40% 1 21.09.2026 -
Matías Dalale Central Córdoba SdE Ativo 85 / 90 40% 1 20.09.2026 -
Luciano Vallejo Atlético Tucumán Ativo 86 / 112 40% 1 19.09.2026 -
Luciano Cingolani Gimnasia y Esgrima Ativo 107 / 127 40% 1 18.09.2026 -
Santino Sciacqua Colón Ativo 100 / 85 40% 2 15.09.2026 -
Román Albornoz Temperley Ativo 74 / 99 40% 1 13.09.2026 -
Francisco Robinson San Martín Ativo 70 / 98 40% 1 12.09.2026 -
Mateo Lizondo Colón Ativo 81 / 109 40% 1 12.09.2026 -
Joaquín Toranzo Sarmiento Ativo 74 / 98 40% 1 11.09.2026 -
Arthur De Lima Central Coast Mariners Ativo 86 / 97 40% 1 11.09.2026 -
Federico Pardiñas Progreso Ativo 68 / 103 40% 1 11.09.2026 -
Maximiliano Zelaya Miramar Misiones Ativo 80 / 107 40% 1 10.09.2026 -
Elías Palacios Nacional Ativo 74 / 76 40% 1 08.09.2026 -
Franco Germán Racing Ativo 70 / 95 40% 1 08.09.2026 -
Lautaro Ávila Racing Ativo 101 / 115 40% 1 08.09.2026 -
Jeyson Rojas Colo-Colo Ativo 102 / 109 40% 1 07.09.2026 -
Juan Rodríguez Wanderers Ativo 90 / 90 40% 2 06.09.2026 -
Brandon Rossi Boca Juniors Ativo 82 / 85 40% 1 03.09.2026 -
Valentino Acosta Morón Ativo 91 / 69 40% 1 02.09.2026 -
Tobías Oscari Atlético Tucumán Ativo 68 / 77 40% 1 01.09.2026 -
Rodrigo Sena Montevideo City Torque Ativo 73 / 89 40% 1 01.09.2026 -
Joshua Carabajal Barracas Central Ativo 67 / 71 40% 1 31.08.2026 -
Nicolás Linares Gimnasia y Esgrima Ativo 124 / 103 40% 1 26.08.2026 -
Axel Cañete Sportivo Trinidense Ativo 93 / 79 40% 1 22.08.2026 -
Jonathan Rodríguez Gimnasia La Plata Ativo 70 / 95 40% 1 21.08.2026 -
Sebastián Leiva Lanús Ativo 67 / 77 40% 1 21.08.2026 -
Daichi Suzuki Sagan Tosu Ativo 79 / 93 40% 1 18.08.2026 -
Marco Rossello Plaza Colonia Ativo 78 / 76 40% 1 16.08.2026 -
Raúl Frasnelli Belgrano Ativo 82 / 83 40% 1 16.08.2026 -
Francisco Ballesteros Gimnasia La Plata Ativo 96 / 72 40% 1 13.08.2026 -
Martín García Aldosivi Ativo 105 / 106 40% 1 13.08.2026 -
Ezequiel García Atlético Tucumán Ativo 94 / 88 40% 1 12.08.2026 -
Angel Barreda Deportivo Riestra Ativo 75 / 76 40% 1 12.08.2026 -
Matías Gauto Gimnasia La Plata Ativo 90 / 92 40% 1 10.08.2026 -
Gastón Silvero Barracas Central Ativo 92 / 98 40% 1 04.08.2026 -
Julián Cosi Madryn Ativo 108 / 101 40% 1 01.08.2026 -